Time;durP1;ratioP1;P1;durP2;ratioP2;P2;SDS_P1;SDS_P2;PMS_P1;PMS_P2;Temp;Humidity;BMP_temperature;BMP_pressure;BME280_temperature;BME280_humidity;BME280_pressure;Samples;Min_cycle;Max_cycle;Signal;HPM_P1;HPM_P2
2023/03/28 00:01:35;;;;;;;6.27;3.07;;;;;;;2.42;74.59;99625.06;5127112;27;42682;-78
2023/03/28 00:04:03;;;;;;;5.57;3.50;;;;;;;2.42;74.65;99624.19;5075913;28;42480;-78
2023/03/28 00:06:32;;;;;;;5.87;2.93;;;;;;;2.41;74.76;99625.94;5110130;28;39377;-78
2023/03/28 00:09:00;;;;;;;3.47;3.17;;;;;;;2.42;74.53;99635.50;5075724;28;42163;-78
2023/03/28 00:11:28;;;;;;;3.50;3.20;;;;;;;2.41;74.48;99639.00;5109842;28;41982;-78
2023/03/28 00:13:59;;;;;;;4.37;3.47;;;;;;;2.27;74.41;99614.84;5126913;27;42033;-78
2023/03/28 00:16:30;;;;;;;4.03;3.40;;;;;;;2.36;75.15;99638.22;5091152;28;39973;-78
2023/03/28 00:18:59;;;;;;;5.63;3.13;;;;;;;2.37;74.87;99633.84;5092944;28;40986;-78
2023/03/28 00:21:29;;;;;;;4.67;3.60;;;;;;;2.36;74.83;99638.22;5093429;28;42694;-78
2023/03/28 00:24:01;;;;;;;6.67;3.60;;;;;;;2.35;74.98;99639.09;5075654;28;41151;-78
2023/03/28 00:26:31;;;;;;;6.67;3.87;;;;;;;2.35;74.89;99641.72;5093533;28;38771;-78
2023/03/28 00:29:00;;;;;;;5.90;3.50;;;;;;;2.32;75.07;99641.78;5109802;28;41725;-78
2023/03/28 00:31:28;;;;;;;5.70;3.77;;;;;;;2.34;75.30;99645.25;5109544;28;42209;-77
2023/03/28 00:33:56;;;;;;;5.23;3.80;;;;;;;2.32;75.46;99652.25;5108516;27;41011;-78
2023/03/28 00:36:28;;;;;;;6.00;4.30;;;;;;;2.30;75.24;99654.03;5075633;28;40387;-78
2023/03/28 00:38:56;;;;;;;5.50;3.43;;;;;;;2.28;75.56;99655.78;5075734;28;40669;-78
2023/03/28 00:41:29;;;;;;;7.17;3.70;;;;;;;2.27;75.25;99659.28;5075521;28;41532;-78
2023/03/28 00:43:57;;;;;;;6.50;4.00;;;;;;;2.22;75.32;99650.69;5090414;28;42568;-78
2023/03/28 00:46:29;;;;;;;6.10;3.37;;;;;;;2.23;75.29;99654.97;5093470;28;41942;-78
2023/03/28 00:49:02;;;;;;;3.50;3.20;;;;;;;2.08;75.45;99631.75;5092795;28;41500;-78
2023/03/28 00:51:34;;;;;;;7.17;3.87;;;;;;;2.21;75.49;99656.78;5109478;28;41933;-77
2023/03/28 00:54:05;;;;;;;5.03;3.50;;;;;;;2.20;75.12;99656.81;5109621;28;42281;-79
2023/03/28 00:56:37;;;;;;;5.63;3.50;;;;;;;2.17;75.23;99655.09;5075412;28;40105;-78
2023/03/28 00:59:09;;;;;;;4.63;2.80;;;;;;;2.15;75.23;99659.47;5109488;28;41868;-79
2023/03/28 01:01:37;;;;;;;5.33;3.20;;;;;;;2.14;75.56;99660.38;5089084;28;42780;-78
2023/03/28 01:04:08;;;;;;;7.17;3.27;;;;;;;2.12;75.40;99659.53;5108799;28;41604;-78
2023/03/28 01:06:41;;;;;;;4.63;3.30;;;;;;;2.11;75.65;99663.03;5123457;27;40922;-78
2023/03/28 01:09:14;;;;;;;7.33;3.27;;;;;;;2.12;75.52;99669.97;5090447;28;41865;-78
2023/03/28 01:11:52;;;;;;;4.97;3.20;;;;;;;2.07;75.54;99661.38;5075214;28;41747;-79
2023/03/28 01:14:23;;;;;;;8.00;3.50;;;;;;;2.09;74.97;99672.66;5090153;28;43460;-78
2023/03/28 01:16:55;;;;;;;4.20;2.87;;;;;;;1.99;74.80;99663.22;5088695;28;39943;-78
2023/03/28 01:19:41;;;;;;;4.80;3.30;;;;;;;2.04;74.88;99677.06;5125785;27;41247;-78
2023/03/28 01:22:51;;;;;;;3.73;3.33;;;;;;;2.00;75.03;99680.59;5075189;28;41904;-77
2023/03/28 01:25:52;;;;;;;4.20;2.80;;;;;;;1.95;74.92;99678.09;5059120;28;42103;-78
2023/03/28 01:28:36;;;;;;;6.63;2.90;;;;;;;1.92;75.34;99679.88;5091898;28;39972;-78
2023/03/28 01:31:24;;;;;;;3.27;2.70;;;;;;;1.91;75.56;99683.38;5074893;28;40873;-78
2023/03/28 01:35:08;;;;;;;4.17;3.00;;;;;;;1.93;76.12;99686.81;5091158;28;41771;-78
2023/03/28 01:37:44;;;;;;;5.50;3.37;;;;;;;1.92;75.95;99679.88;5054544;28;41309;-78
2023/03/28 01:40:32;;;;;;;6.30;3.57;;;;;;;1.91;76.53;99679.00;5074968;28;39580;-78
2023/03/28 01:43:14;;;;;;;5.83;3.57;;;;;;;1.94;76.64;99681.59;5126026;27;41752;-79
2023/03/28 01:45:55;;;;;;;7.17;3.87;;;;;;;1.95;76.55;99687.66;5107856;27;41530;-79
2023/03/28 01:48:33;;;;;;;5.27;4.30;;;;;;;1.79;76.53;99663.50;5108915;28;41286;-78
2023/03/28 01:51:09;;;;;;;5.87;4.20;;;;;;;1.84;76.87;99671.28;5088559;28;40165;-78
2023/03/28 01:53:44;;;;;;;6.63;3.77;;;;;;;1.95;76.69;99690.28;5108456;28;40552;-78
2023/03/28 01:56:21;;;;;;;10.43;4.80;;;;;;;1.94;77.08;99693.78;5091548;28;43083;-78
2023/03/28 01:58:56;;;;;;;5.87;4.10;;;;;;;1.79;77.52;99667.00;5108220;28;41393;-78
2023/03/28 02:01:40;;;;;;;5.50;4.53;;;;;;;1.94;77.27;99692.03;5074775;28;39339;-79
2023/03/28 02:04:19;;;;;;;6.70;4.90;;;;;;;1.95;76.78;99692.91;5108096;28;40431;-79
2023/03/28 02:06:57;;;;;;;5.47;3.87;;;;;;;1.93;76.78;99694.66;5122291;27;43794;-77
2023/03/28 02:09:32;;;;;;;7.27;4.60;;;;;;;1.90;77.18;99695.56;5108658;28;42260;-79
2023/03/28 02:12:12;;;;;;;5.53;4.23;;;;;;;1.87;77.19;99689.50;5122519;27;40903;-78
2023/03/28 02:15:15;;;;;;;9.97;4.73;;;;;;;1.88;77.10;99702.53;5081681;28;41672;-79
2023/03/28 02:18:10;;;;;;;5.40;4.17;;;;;;;1.86;77.09;99693.00;5092487;28;43472;-78
2023/03/28 02:20:55;;;;;;;7.20;4.57;;;;;;;1.64;77.51;99661.97;5074386;28;41513;-79
2023/03/28 02:23:47;;;;;;;6.03;4.23;;;;;;;1.85;77.53;99697.38;5074237;28;39981;-78
2023/03/28 02:26:46;;;;;;;8.57;4.87;;;;;;;1.83;77.75;99693.06;5086473;28;40821;-78
2023/03/28 02:29:39;;;;;;;8.90;4.77;;;;;;;1.83;77.58;99699.16;5073932;28;41881;-81
2023/03/28 02:32:16;;;;;;;5.30;4.13;;;;;;;1.82;77.49;99701.78;5107866;28;42183;-78
2023/03/28 02:34:47;;;;;;;5.97;4.10;;;;;;;1.81;77.42;99700.91;5090718;28;39917;-78
2023/03/28 02:37:27;;;;;;;6.53;4.03;;;;;;;1.79;77.39;99700.94;5074329;28;40333;-79
2023/03/28 02:40:08;;;;;;;6.20;3.90;;;;;;;1.78;77.23;99699.22;5074227;28;41776;-78
2023/03/28 02:42:55;;;;;;;5.80;4.07;;;;;;;1.68;77.37;99689.78;5089058;28;43186;-78
2023/03/28 02:45:41;;;;;;;8.50;4.20;;;;;;;1.78;76.93;99707.03;5073578;28;39990;-77
2023/03/28 02:48:21;;;;;;;6.23;3.63;;;;;;;1.61;76.76;99677.66;5074105;28;41943;-78
2023/03/28 02:50:56;;;;;;;6.00;3.57;;;;;;;1.74;77.06;99697.50;5087767;28;42849;-78
2023/03/28 02:53:32;;;;;;;7.50;3.93;;;;;;;1.71;76.97;99694.97;5073935;28;42412;-77
2023/03/28 02:56:07;;;;;;;9.90;3.70;;;;;;;1.66;76.99;99694.16;5074046;28;39025;-78
2023/03/28 02:58:59;;;;;;;8.37;3.70;;;;;;;1.61;77.08;99684.63;5092088;28;41694;-78
2023/03/28 03:01:28;;;;;;;4.97;3.67;;;;;;;1.68;77.06;99705.44;5091307;28;43629;-77
2023/03/28 03:03:56;;;;;;;8.67;4.13;;;;;;;1.71;77.13;99713.25;5076957;28;41437;-78
2023/03/28 03:06:24;;;;;;;7.13;3.80;;;;;;;1.68;76.84;99710.66;5077254;28;39109;-77
2023/03/28 03:08:52;;;;;;;8.33;4.10;;;;;;;1.69;76.94;99719.38;5076818;28;40426;-78
2023/03/28 03:11:20;;;;;;;6.57;3.57;;;;;;;1.67;76.46;99724.59;5077334;28;42841;-78
2023/03/28 03:13:48;;;;;;;5.73;3.70;;;;;;;1.52;76.67;99703.91;5110815;28;41478;-78
2023/03/28 03:16:18;;;;;;;10.40;3.73;;;;;;;1.63;76.93;99720.28;5094159;28;39845;-77
2023/03/28 03:18:46;;;;;;;7.23;4.10;;;;;;;1.51;76.91;99702.16;5110652;28;40705;-77
2023/03/28 03:21:14;;;;;;;4.03;3.30;;;;;;;1.60;76.81;99722.09;5076556;28;43158;-78
2023/03/28 03:23:43;;;;;;;5.87;3.60;;;;;;;1.61;76.98;99724.66;5076474;28;41394;-78
2023/03/28 03:26:11;;;;;;;6.63;4.03;;;;;;;1.62;76.86;99733.34;5094252;28;41639;-78
2023/03/28 03:28:48;;;;;;;6.17;3.63;;;;;;;1.59;76.48;99726.47;5110667;28;40822;-78
2023/03/28 03:31:18;;;;;;;6.63;3.60;;;;;;;1.57;76.72;99733.44;5128373;27;41642;-78
2023/03/28 03:34:23;;;;;;;7.20;3.70;;;;;;;1.57;76.87;99732.56;5092865;28;42236;-78
2023/03/28 03:36:55;;;;;;;5.90;3.80;;;;;;;1.55;77.28;99731.72;5076478;28;38787;-78
2023/03/28 03:39:23;;;;;;;9.40;3.83;;;;;;;1.54;77.21;99725.63;5110473;28;41660;-78
2023/03/28 03:41:51;;;;;;;5.90;3.57;;;;;;;1.55;77.28;99729.97;5076989;28;42533;-78
2023/03/28 03:44:18;;;;;;;7.07;3.63;;;;;;;1.45;77.00;99720.53;5094676;28;43285;-78
2023/03/28 03:46:48;;;;;;;5.77;3.87;;;;;;;1.40;76.96;99715.34;5076761;28;40015;-78
2023/03/28 03:49:16;;;;;;;7.23;3.97;;;;;;;1.25;77.32;99699.00;5110119;28;40581;-78
2023/03/28 03:51:44;;;;;;;7.60;4.10;;;;;;;1.52;77.17;99736.97;5076625;28;42765;-77
2023/03/28 03:54:16;;;;;;;9.00;3.37;;;;;;;1.41;77.26;99722.31;5076172;28;40914;-78
2023/03/28 03:56:44;;;;;;;5.57;3.57;;;;;;;1.51;77.22;99737.84;5076630;28;39232;-78
2023/03/28 03:59:13;;;;;;;6.83;3.83;;;;;;;1.49;76.96;99735.25;5076333;28;42085;-78
2023/03/28 04:01:42;;;;;;;7.17;3.60;;;;;;;1.33;76.94;99712.84;5076339;28;41778;-78
2023/03/28 04:04:35;;;;;;;6.60;3.97;;;;;;;1.46;77.06;99734.44;5090108;28;41137;-78
2023/03/28 04:07:29;;;;;;;5.57;4.00;;;;;;;1.42;76.97;99731.00;5091921;28;39218;-78
2023/03/28 04:09:57;;;;;;;7.97;4.70;;;;;;;1.40;76.77;99727.53;5110033;27;40644;-77
2023/03/28 04:12:28;;;;;;;7.63;4.10;;;;;;;1.31;77.05;99717.22;5076359;28;41920;-78
2023/03/28 04:14:57;;;;;;;6.87;4.47;;;;;;;1.36;77.32;99723.25;5092667;28;43395;-78
2023/03/28 04:17:39;;;;;;;9.30;4.70;;;;;;;1.30;77.31;99715.47;5093117;28;40941;-78
2023/03/28 04:20:14;;;;;;;8.67;4.67;;;;;;;1.34;77.38;99727.63;5092106;28;41927;-78
2023/03/28 04:23:04;;;;;;;9.40;4.27;;;;;;;1.33;77.20;99728.50;5081945;28;41588;-78
2023/03/28 04:25:33;;;;;;;5.07;4.03;;;;;;;1.30;77.41;99721.56;5089783;28;42331;-78
2023/03/28 04:28:07;;;;;;;5.47;3.93;;;;;;;1.30;77.35;99723.31;5076303;28;40308;-78
2023/03/28 04:30:38;;;;;;;7.17;5.07;;;;;;;1.27;77.33;99731.16;5109793;28;40886;-78
2023/03/28 04:33:25;;;;;;;8.73;5.10;;;;;;;1.25;77.55;99735.53;5091124;28;42958;-78
2023/03/28 04:35:59;;;;;;;9.47;4.30;;;;;;;1.25;77.55;99738.13;5126810;27;42012;-78
2023/03/28 04:38:28;;;;;;;7.83;4.40;;;;;;;1.23;77.20;99738.19;5090065;28;40964;-78
2023/03/28 04:41:03;;;;;;;7.83;4.30;;;;;;;1.23;77.31;99751.22;5109468;28;40996;-78
2023/03/28 04:44:09;;;;;;;7.17;4.47;;;;;;;1.20;77.22;99753.88;5091600;28;43690;-77
2023/03/28 04:46:45;;;;;;;7.30;4.50;;;;;;;1.18;77.08;99754.75;5074706;28;41646;-77
2023/03/28 04:49:14;;;;;;;4.60;3.47;;;;;;;1.16;76.77;99764.34;5065083;28;40283;-78
2023/03/28 04:51:44;;;;;;;6.90;4.03;;;;;;;1.08;76.97;99754.00;5092666;28;42341;-78
2023/03/28 04:54:12;;;;;;;6.93;4.17;;;;;;;1.10;76.80;99769.63;5075104;28;42567;-78
2023/03/28 04:57:01;;;;;;;9.83;4.53;;;;;;;1.08;77.19;99775.72;5093213;28;42679;-78
2023/03/28 04:59:38;;;;;;;7.57;3.93;;;;;;;1.06;77.41;99772.25;5109326;28;39230;-78
2023/03/28 05:02:07;;;;;;;8.93;5.37;;;;;;;0.97;77.33;99764.53;5075226;28;40856;-78
2023/03/28 05:04:43;;;;;;;6.33;3.87;;;;;;;0.97;77.34;99761.94;5074855;28;42739;-78
2023/03/28 05:07:15;;;;;;;5.80;4.30;;;;;;;1.06;77.52;99782.69;5075316;28;41444;-78
2023/03/28 05:09:43;;;;;;;5.67;4.37;;;;;;;1.04;77.61;99783.59;5126404;27;41809;-78
2023/03/28 05:12:11;;;;;;;8.57;4.87;;;;;;;1.01;77.74;99786.22;5075016;28;41770;-78
2023/03/28 05:14:58;;;;;;;8.30;5.17;;;;;;;1.05;77.43;99791.41;5074839;28;41460;-79
2023/03/28 05:17:26;;;;;;;8.33;4.90;;;;;;;1.05;77.58;99786.19;5109089;28;41285;-77
2023/03/28 05:20:06;;;;;;;5.93;4.40;;;;;;;1.06;77.90;99787.91;5107822;27;39236;-78
2023/03/28 05:22:40;;;;;;;11.33;4.80;;;;;;;1.10;78.00;99790.50;5108985;28;42759;-78
2023/03/28 05:25:09;;;;;;;12.53;5.30;;;;;;;1.13;78.01;99798.28;5127538;27;43737;-79
2023/03/28 05:27:40;;;;;;;8.37;4.30;;;;;;;1.13;78.03;99804.34;5095483;28;42615;-78
2023/03/28 05:30:10;;;;;;;11.17;5.03;;;;;;;1.16;78.17;99813.91;5094387;28;40014;-78
2023/03/28 05:32:38;;;;;;;8.43;4.80;;;;;;;1.22;78.36;99813.88;5075214;28;40532;-78
2023/03/28 05:35:13;;;;;;;8.50;5.20;;;;;;;1.24;78.72;99812.06;5091287;28;43808;-78
2023/03/28 05:37:43;;;;;;;9.57;5.03;;;;;;;1.22;78.64;99803.44;5109403;28;41494;-78
2023/03/28 05:40:13;;;;;;;9.87;4.63;;;;;;;1.41;78.53;99837.13;5074676;28;38785;-78
2023/03/28 05:42:44;;;;;;;11.70;4.80;;;;;;;1.33;77.92;99812.00;5074747;28;41060;-78
2023/03/28 05:45:16;;;;;;;8.30;4.43;;;;;;;1.44;77.67;99831.03;5074445;28;43140;-78
2023/03/28 05:47:56;;;;;;;8.33;4.60;;;;;;;1.54;77.79;99843.09;5089605;28;42321;-78
2023/03/28 05:50:26;;;;;;;7.83;4.10;;;;;;;1.61;77.55;99854.31;5108132;28;39190;-78
2023/03/28 05:53:02;;;;;;;11.23;5.07;;;;;;;1.66;77.38;99852.53;5122604;27;41750;-78
2023/03/28 05:55:30;;;;;;;6.60;4.30;;;;;;;1.71;77.03;99864.69;5108302;28;41339;-78
2023/03/28 05:57:59;;;;;;;8.83;5.00;;;;;;;1.74;77.00;99862.03;5090979;28;43141;-77
2023/03/28 06:00:36;;;;;;;8.70;4.20;;;;;;;1.83;76.79;99870.66;5077825;28;41940;-77
2023/03/28 06:03:04;;;;;;;8.03;4.33;;;;;;;1.79;76.60;99848.91;5091373;28;41468;-78
2023/03/28 06:05:36;;;;;;;6.43;3.77;;;;;;;1.97;76.19;99868.75;5086799;28;42832;-78
2023/03/28 06:08:11;;;;;;;11.37;4.87;;;;;;;2.01;76.03;99865.22;5107946;28;41461;-77
2023/03/28 06:10:39;;;;;;;9.10;4.00;;;;;;;2.10;75.90;99875.56;5121624;27;40884;-78
2023/03/28 06:13:27;;;;;;;9.70;4.77;;;;;;;2.16;75.50;99859.81;5074328;28;40915;-78
2023/03/28 06:15:55;;;;;;;9.73;4.10;;;;;;;2.18;75.00;99863.25;5090473;28;43744;-78
2023/03/28 06:18:31;;;;;;;9.03;4.10;;;;;;;2.20;74.53;99853.66;5088030;28;42116;-78
2023/03/28 06:20:59;;;;;;;8.13;4.20;;;;;;;2.35;74.43;99874.34;5089969;28;39917;-78
2023/03/28 06:23:29;;;;;;;7.37;4.13;;;;;;;2.51;74.49;99880.25;5090112;28;42594;-77
2023/03/28 06:25:57;;;;;;;7.87;4.10;;;;;;;2.60;73.78;99879.28;5089887;28;42935;-77
2023/03/28 06:28:27;;;;;;;9.03;4.57;;;;;;;2.69;73.76;99884.38;5073520;28;41954;-77
2023/03/28 06:31:24;;;;;;;8.70;4.03;;;;;;;2.86;73.58;99887.59;5077066;28;39049;-79
2023/03/28 06:33:52;;;;;;;7.67;4.23;;;;;;;2.97;72.73;99883.06;5093237;28;41789;-78
2023/03/28 06:36:21;;;;;;;6.90;4.07;;;;;;;3.09;72.44;99885.47;5076579;28;41786;-78
2023/03/28 06:38:52;;;;;;;8.27;4.20;;;;;;;3.16;72.12;99889.75;5110734;28;42125;-77
2023/03/28 06:41:20;;;;;;;7.70;4.13;;;;;;;3.31;71.60;99895.63;5073283;28;38761;-79
2023/03/28 06:43:49;;;;;;;6.47;3.90;;;;;;;3.30;71.40;99881.66;5057093;28;41646;-79
2023/03/28 06:46:35;;;;;;;11.57;5.40;;;;;;;3.59;70.97;99917.81;5073983;28;42183;-79
2023/03/28 06:49:03;;;;;;;8.00;4.07;;;;;;;3.76;70.34;99921.00;5056691;28;41552;-78
2023/03/28 06:52:04;;;;;;;8.63;3.43;;;;;;;3.97;70.15;99932.84;5049776;28;41077;-79
2023/03/28 06:54:35;;;;;;;8.73;4.07;;;;;;;4.10;69.52;99928.22;5076195;28;41272;-78
2023/03/28 06:57:03;;;;;;;8.13;3.70;;;;;;;4.20;69.16;99937.69;5076757;28;42874;-79
2023/03/28 06:59:31;;;;;;;7.70;3.87;;;;;;;4.33;68.85;99941.75;5072572;28;42229;-79
2023/03/28 07:02:03;;;;;;;6.57;4.27;;;;;;;4.54;68.07;99943.97;5057233;28;39177;-79
2023/03/28 07:04:33;;;;;;;7.37;3.70;;;;;;;4.62;67.40;99921.03;5061071;28;40747;-80
2023/03/28 07:07:02;;;;;;;9.10;4.43;;;;;;;4.91;67.11;99948.41;5093833;28;42689;-77
2023/03/28 07:09:30;;;;;;;8.83;4.70;;;;;;;5.38;65.94;99952.56;5091941;28;43263;-76
2023/03/28 07:12:07;;;;;;;8.37;4.27;;;;;;;6.63;62.92;99972.97;5090724;28;39927;-78
2023/03/28 07:14:35;;;;;;;5.63;3.10;;;;;;;8.45;58.05;99996.09;5075858;28;41957;-78
2023/03/28 07:17:03;;;;;;;6.93;3.53;;;;;;;10.24;54.20;100001.41;5076542;28;42662;-79
2023/03/28 07:19:33;;;;;;;5.10;3.60;;;;;;;11.81;49.67;100026.84;5071791;28;42078;-78
2023/03/28 07:22:01;;;;;;;7.77;3.57;;;;;;;12.96;47.75;100040.44;5074196;28;41166;-80
2023/03/28 07:24:28;;;;;;;6.90;3.70;;;;;;;13.93;45.05;100056.34;5060110;28;41178;-80
2023/03/28 07:27:24;;;;;;;8.47;3.27;;;;;;;14.55;42.47;100054.50;5090118;28;41604;-77
2023/03/28 07:29:52;;;;;;;5.57;3.27;;;;;;;14.88;41.36;100064.06;5072126;28;42218;-77
2023/03/28 07:32:21;;;;;;;4.07;2.47;;;;;;;14.79;41.61;100043.31;5090095;28;40907;-79
2023/03/28 07:34:48;;;;;;;7.87;3.50;;;;;;;14.76;41.81;100057.69;5059164;28;40804;-78
2023/03/28 07:37:23;;;;;;;7.00;3.23;;;;;;;14.79;40.45;100076.16;5056161;28;41897;-79
2023/03/28 07:39:57;;;;;;;6.10;2.70;;;;;;;14.94;40.25;100071.72;5079821;28;43294;-80
2023/03/28 07:42:28;;;;;;;7.27;3.70;;;;;;;15.40;38.94;100091.94;5110239;28;39830;-77
2023/03/28 07:44:56;;;;;;;7.30;3.60;;;;;;;16.26;38.25;100097.97;5075105;28;41586;-79
2023/03/28 07:47:24;;;;;;;5.47;2.97;;;;;;;17.32;36.33;100063.03;5127497;27;42785;-81
2023/03/28 07:49:53;;;;;;;5.03;3.00;;;;;;;19.11;33.92;100123.03;5075877;28;41201;-80
2023/03/28 07:52:21;;;;;;;6.10;2.83;;;;;;;20.07;32.52;100130.53;5076608;28;40212;-83
2023/03/28 07:54:48;;;;;;;8.47;3.27;;;;;;;20.66;31.00;100142.72;5072063;28;40765;-82
2023/03/28 07:57:16;;;;;;;6.97;3.20;;;;;;;21.55;29.40;100099.09;5072723;28;42998;-82
2023/03/28 08:00:11;;;;;;;5.70;3.50;;;;;;;23.56;26.89;100139.97;5081868;28;42403;-80
2023/03/28 08:02:41;;;;;;;5.93;2.97;;;;;;;24.91;24.40;100156.28;5093342;28;39213;-80
2023/03/28 08:05:09;;;;;;;6.43;3.37;;;;;;;24.78;24.84;100155.81;5092046;28;41599;-80
2023/03/28 08:07:37;;;;;;;8.50;2.90;;;;;;;24.29;25.31;100149.03;5075887;28;41600;-83
2023/03/28 08:10:06;;;;;;;3.60;2.60;;;;;;;24.32;25.16;100138.75;5099726;28;41134;-81
2023/03/28 08:12:34;;;;;;;6.20;2.70;;;;;;;23.82;25.34;100148.25;5085216;28;40006;-82
2023/03/28 08:15:02;;;;;;;8.20;3.07;;;;;;;22.56;26.48;100139.44;5076373;28;41446;-80
2023/03/28 08:17:32;;;;;;;4.13;2.50;;;;;;;21.42;27.86;100133.53;5072323;28;42824;-82
2023/03/28 08:20:00;;;;;;;6.53;3.00;;;;;;;20.43;29.21;100083.59;5062989;28;41420;-78
2023/03/28 08:22:27;;;;;;;5.00;2.70;;;;;;;20.93;27.74;100137.72;5093348;28;40051;-78
2023/03/28 08:25:21;;;;;;;6.87;2.53;;;;;;;20.40;28.69;100116.16;5068253;28;41662;-79
2023/03/28 08:27:49;;;;;;;6.20;2.30;;;;;;;20.68;27.78;100138.94;5092881;28;42696;-80
2023/03/28 08:30:17;;;;;;;8.30;2.70;;;;;;;19.35;29.25;100115.75;5091763;28;42210;-83
2023/03/28 08:32:57;;;;;;;3.87;2.27;;;;;;;19.41;29.99;100128.69;5089662;28;40639;-84
2023/03/28 08:35:25;;;;;;;6.60;2.37;;;;;;;20.29;28.78;100089.25;5108190;28;40874;-81
2023/03/28 08:37:57;;;;;;;7.13;2.60;;;;;;;21.57;27.47;100097.13;5089468;28;43622;-81
2023/03/28 08:40:27;;;;;;;6.93;2.50;;;;;;;23.17;25.84;100142.72;5074963;28;41508;-79
2023/03/28 08:43:21;;;;;;;6.07;2.63;;;;;;;25.26;24.34;100128.28;5089722;28;40025;-80
2023/03/28 08:45:53;;;;;;;7.87;2.60;;;;;;;27.18;22.34;100143.75;5073609;28;41192;-79
2023/03/28 08:48:27;;;;;;;4.47;2.10;;;;;;;27.92;20.12;100155.38;5088743;28;43359;-81
2023/03/28 08:51:01;;;;;;;4.90;1.80;;;;;;;28.02;19.89;100175.06;5075332;28;42487;-80
2023/03/28 08:53:33;;;;;;;3.70;2.17;;;;;;;26.93;20.63;100146.66;5089241;28;40059;-79
2023/03/28 08:56:03;;;;;;;5.38;2.40;;;;;;;28.97;18.96;100161.28;5087126;28;41716;-80
2023/03/28 08:58:38;;;;;;;4.32;2.00;;;;;;;30.73;18.50;100164.13;5073681;28;41796;-80
2023/03/28 09:01:09;;;;;;;4.90;2.13;;;;;;;31.90;16.99;100181.78;5071396;28;41309;-79
2023/03/28 09:03:39;;;;;;;5.97;2.08;;;;;;;33.36;16.48;100173.06;5069322;28;39735;-80
2023/03/28 09:06:23;;;;;;;5.18;2.22;;;;;;;32.28;16.15;100176.75;5072716;28;42230;-81
2023/03/28 09:09:25;;;;;;;4.05;2.25;;;;;;;30.94;17.01;100153.19;5089435;28;43040;-79
2023/03/28 09:12:22;;;;;;;6.18;1.67;;;;;;;30.80;16.74;100172.38;5074057;28;43006;-81
2023/03/28 09:15:13;;;;;;;5.10;2.00;;;;;;;32.19;16.31;100164.28;5074322;28;38692;-80
2023/03/28 09:17:50;;;;;;;4.07;1.50;;;;;;;33.57;15.38;100166.47;5122776;27;41682;-79
2023/03/28 09:20:28;;;;;;;2.72;1.58;;;;;;;34.37;14.43;100159.75;5089816;28;43452;-80
2023/03/28 09:23:31;;;;;;;3.63;1.77;;;;;;;35.15;14.21;100171.38;5089111;28;42393;-78
2023/03/28 09:26:24;;;;;;;3.17;1.77;;;;;;;32.72;15.47;100167.25;5092950;28;41915;-78
2023/03/28 09:29:02;;;;;;;3.20;1.80;;;;;;;30.87;15.98;100157.75;5123879;27;41702;-78
2023/03/28 09:31:34;;;;;;;4.13;2.17;;;;;;;28.36;17.88;100147.53;5122214;27;43715;-79
2023/03/28 09:34:05;;;;;;;4.73;1.57;;;;;;;26.30;18.98;100139.03;5107553;28;41616;-77
2023/03/28 09:36:44;;;;;;;3.47;1.40;;;;;;;26.08;20.09;100114.16;5088530;28;39880;-77
2023/03/28 09:39:19;;;;;;;3.73;1.60;;;;;;;25.21;20.07;100135.22;5073516;28;40952;-79
2023/03/28 09:41:53;;;;;;;5.10;1.60;;;;;;;24.41;20.44;100123.44;5074739;28;41966;-77
2023/03/28 09:44:45;;;;;;;4.60;1.53;;;;;;;26.30;18.46;100129.03;5069449;28;42100;-78
2023/03/28 09:47:35;;;;;;;5.83;1.73;;;;;;;27.58;17.17;100142.00;5091136;28;40334;-77
2023/03/28 09:50:14;;;;;;;4.20;1.60;;;;;;;27.16;17.95;100136.78;5090342;28;41862;-80
2023/03/28 09:52:50;;;;;;;3.83;1.63;;;;;;;27.44;18.18;100140.84;5088529;28;43000;-78
2023/03/28 09:55:21;;;;;;;5.20;1.57;;;;;;;27.00;17.86;100143.06;5074054;28;41410;-80
2023/03/28 09:58:03;;;;;;;3.73;1.37;;;;;;;26.39;17.43;100132.59;5074681;28;38695;-78
2023/03/28 10:00:39;;;;;;;3.47;1.13;;;;;;;24.83;17.97;100139.09;5073689;28;41865;-79
2023/03/28 10:03:31;;;;;;;2.00;1.53;;;;;;;25.53;19.15;100129.13;5090797;28;42634;-79
2023/03/28 10:06:01;;;;;;;3.20;1.23;;;;;;;25.93;18.69;100115.81;5088582;28;43327;-80
2023/03/28 10:08:39;;;;;;;4.23;1.77;;;;;;;26.57;18.85;100125.19;5088223;28;40260;-76
2023/03/28 10:11:30;;;;;;;2.73;1.20;;;;;;;27.90;17.88;100130.19;5082287;28;42043;-80
2023/03/28 10:13:58;;;;;;;4.97;1.43;;;;;;;28.03;17.45;100140.50;5073798;28;41313;-80
2023/03/28 10:16:30;;;;;;;5.20;2.00;;;;;;;26.98;17.32;100144.25;5073686;28;42205;-78
2023/03/28 10:18:58;;;;;;;3.80;1.57;;;;;;;27.62;17.59;100137.06;5091015;28;41182;-80
2023/03/28 10:21:50;;;;;;;5.13;1.57;;;;;;;27.63;17.56;100138.78;5074187;28;41720;-78
2023/03/28 10:24:25;;;;;;;3.90;1.47;;;;;;;27.34;18.11;100118.38;5107617;28;41416;-83
2023/03/28 10:27:08;;;;;;;2.77;1.37;;;;;;;27.79;17.74;100127.84;5074518;28;42483;-79
2023/03/28 10:29:37;;;;;;;4.37;1.53;;;;;;;28.75;17.40;100109.28;5073114;28;39382;-78
2023/03/28 10:32:05;;;;;;;3.37;1.90;;;;;;;28.88;17.10;100106.81;5090998;28;41595;-79
2023/03/28 10:34:40;;;;;;;5.10;1.40;;;;;;;31.18;15.05;100126.47;5073673;28;42207;-78
2023/03/28 10:37:23;;;;;;;2.97;1.50;;;;;;;33.31;14.43;100119.81;5092462;28;42352;-81
2023/03/28 10:40:22;;;;;;;3.63;1.27;;;;;;;31.72;14.49;100135.75;5072897;28;39285;-79
2023/03/28 10:43:00;;;;;;;3.43;1.43;;;;;;;30.39;14.95;100120.19;5090222;28;40935;-77
2023/03/28 10:45:49;;;;;;;3.40;1.60;;;;;;;30.42;15.13;100125.25;5086702;28;42477;-78
2023/03/28 10:48:30;;;;;;;4.30;1.40;;;;;;;30.78;15.20;100114.31;5087931;28;42354;-80
2023/03/28 10:51:09;;;;;;;4.13;1.33;;;;;;;30.02;16.01;100092.00;5073548;28;39232;-81
2023/03/28 10:53:53;;;;;;;3.60;1.70;;;;;;;30.35;16.04;100106.03;5088964;28;41788;-78
2023/03/28 10:56:32;;;;;;;4.67;1.73;;;;;;;28.92;15.55;100105.44;5111631;28;41236;-78
2023/03/28 10:59:16;;;;;;;3.87;1.40;;;;;;;27.57;16.21;100101.38;5086176;28;42106;-80
2023/03/28 11:01:53;;;;;;;3.33;1.70;;;;;;;27.45;17.66;100077.19;5087876;28;40074;-82
2023/03/28 11:04:33;;;;;;;2.80;1.33;;;;;;;29.52;16.68;100071.75;5090369;28;41738;-81
2023/03/28 11:07:08;;;;;;;3.93;1.60;;;;;;;31.19;15.20;100100.78;5088098;28;43758;-82
2023/03/28 11:10:19;;;;;;;4.45;1.30;;;;;;;31.92;13.68;100118.56;5067881;28;41355;-82
2023/03/28 11:13:05;;;;;;;2.10;1.20;;;;;;;31.65;13.49;100112.94;5089397;28;40917;-89
2023/03/28 11:15:45;;;;;;;3.70;1.50;;;;;;;31.49;14.01;100101.44;5074196;28;40732;-81
2023/03/28 11:18:35;;;;;;;4.30;1.37;;;;;;;31.82;13.87;100108.00;5088637;28;42430;-81
2023/03/28 11:21:19;;;;;;;3.78;1.20;;;;;;;33.27;13.10;100089.16;5077069;28;41468;-84
2023/03/28 11:23:58;;;;;;;2.45;1.20;;;;;;;34.67;12.56;100090.38;5092319;28;40546;-84
2023/03/28 11:26:38;;;;;;;2.85;1.50;;;;;;;35.78;11.31;100088.56;5094821;28;40960;-84
2023/03/28 11:29:29;;;;;;;3.33;1.38;;;;;;;37.04;11.20;100080.22;5094440;28;43116;-83
2023/03/28 11:32:05;;;;;;;3.42;1.58;;;;;;;37.69;9.99;100093.16;5057657;28;41122;-83
2023/03/28 11:34:37;;;;;;;4.82;1.50;;;;;;;37.34;10.62;100085.66;5076751;28;38938;-83
2023/03/28 11:37:12;;;;;;;3.97;1.40;;;;;;;37.13;11.45;100060.53;5071899;28;41966;-79
2023/03/28 11:39:46;;;;;;;4.10;1.55;;;;;;;36.20;12.83;100061.09;5105810;28;42814;-82
2023/03/28 11:42:27;;;;;;;2.97;1.52;;;;;;;35.00;13.44;100060.69;5082513;28;43402;-80
2023/03/28 11:45:03;;;;;;;2.10;1.42;;;;;;;34.55;13.67;100058.06;5076808;28;38857;-80
2023/03/28 11:47:37;;;;;;;3.35;1.55;;;;;;;35.78;12.34;100063.75;5075755;28;41006;-83
2023/03/28 11:50:19;;;;;;;2.65;1.30;;;;;;;37.11;11.81;100062.69;5075672;28;41577;-80
2023/03/28 11:53:07;;;;;;;3.28;1.70;;;;;;;38.13;11.18;100065.88;5055672;28;42490;-79
2023/03/28 11:55:49;;;;;;;4.57;1.50;;;;;;;38.76;10.64;100061.00;5070371;28;40685;-83
2023/03/28 11:58:43;;;;;;;2.33;1.33;;;;;;;39.16;9.86;100076.66;5073729;28;41589;-81
2023/03/28 12:01:17;;;;;;;2.17;1.20;;;;;;;39.08;9.78;100057.66;5064182;28;41712;-81
2023/03/28 12:04:00;;;;;;;2.47;1.42;;;;;;;39.09;9.88;100062.09;5076076;28;41447;-79
2023/03/28 12:06:35;;;;;;;2.83;1.40;;;;;;;39.50;9.90;100053.34;5089538;28;41079;-82
2023/03/28 12:09:13;;;;;;;1.88;1.20;;;;;;;40.05;9.33;100068.25;5076435;28;40901;-80
2023/03/28 12:11:48;;;;;;;1.45;1.08;;;;;;;40.40;9.13;100062.25;5109650;28;42216;-80
2023/03/28 12:14:33;;;;;;;2.92;1.20;;;;;;;40.72;9.46;100045.66;5075041;28;41073;-81
2023/03/28 12:17:17;;;;;;;5.38;1.33;;;;;;;40.50;8.99;100040.97;5092839;28;41001;-80